Time;durP1;ratioP1;P1;durP2;ratioP2;P2;SDS_P1;SDS_P2;PMS_P1;PMS_P2;Temp;Humidity;BMP_temperature;BMP_pressure;BME280_temperature;BME280_humidity;BME280_pressure;Samples;Min_cycle;Max_cycle;Signal;HPM_P1;HPM_P2
2023/01/15 00:02:08;;;;;;;8.87;4.10;;;12.50;99.90;;;;;;4590444;19;20993;-32
2023/01/15 00:03:48;;;;;;;9.10;4.20;;;12.50;99.90;;;;;;4590465;19;20014;-37
2023/01/15 00:05:19;;;;;;;11.32;4.70;;;12.50;99.90;;;;;;4589332;19;20042;-31
2023/01/15 00:06:53;;;;;;;7.87;3.60;;;12.50;99.90;;;;;;4589699;19;20066;-29
2023/01/15 00:08:24;;;;;;;8.37;3.77;;;12.50;99.90;;;;;;4588454;19;20003;-30
2023/01/15 00:09:56;;;;;;;9.90;3.65;;;12.50;99.90;;;;;;4590464;19;20013;-31
2023/01/15 00:11:27;;;;;;;7.47;3.88;;;12.50;99.90;;;;;;4589938;19;20085;-32
2023/01/15 00:12:59;;;;;;;9.27;4.47;;;12.50;99.90;;;;;;4590245;19;20066;-32
2023/01/15 00:14:30;;;;;;;;;;;12.50;99.90;;;;;;4591009;19;20372;-33
2023/01/15 00:16:03;;;;;;;8.47;3.23;;;12.50;99.90;;;;;;4589748;19;19930;-33
2023/01/15 00:17:34;;;;;;;7.10;3.03;;;12.40;99.90;;;;;;4589925;19;20505;-28
2023/01/15 00:19:09;;;;;;;7.83;3.97;;;12.40;99.90;;;;;;4589953;19;20017;-29
2023/01/15 00:20:40;;;;;;;9.40;4.00;;;12.40;99.90;;;;;;4590221;19;20133;-29
2023/01/15 00:22:12;;;;;;;6.97;3.30;;;12.40;99.90;;;;;;4589710;19;20045;-31
2023/01/15 00:27:37;;;;;;;10.18;4.95;;;12.50;99.90;;;;;;4590414;19;20022;-32
2023/01/15 00:29:08;;;;;;;11.80;7.23;;;12.60;99.90;;;;;;4588724;19;20002;-30
2023/01/15 00:30:41;;;;;;;9.45;6.75;;;12.60;99.90;;;;;;4590334;19;20010;-33
2023/01/15 00:32:13;;;;;;;12.97;10.40;;;12.60;99.90;;;;;;4589372;19;20006;-29
2023/01/15 00:33:47;;;;;;;10.83;8.47;;;12.60;99.90;;;;;;4589774;19;20018;-29
2023/01/15 00:35:19;;;;;;;;;;;12.60;99.90;;;;;;4592086;19;20007;-32
2023/01/15 00:36:50;;;;;;;9.75;5.68;;;12.70;99.90;;;;;;4591470;19;19922;-29
2023/01/15 00:38:22;;;;;;;9.47;7.20;;;12.70;99.90;;;;;;4590372;19;20035;-29
2023/01/15 00:39:54;;;;;;;9.97;6.13;;;12.70;99.90;;;;;;4591257;19;20031;-36
2023/01/15 00:41:26;;;;;;;9.90;5.97;;;12.70;99.90;;;;;;4591737;19;19999;-29
2023/01/15 00:42:57;;;;;;;8.75;4.72;;;12.70;99.90;;;;;;4591381;19;20011;-29
2023/01/15 00:44:32;;;;;;;7.73;4.20;;;12.70;99.90;;;;;;4591910;19;20014;-30
2023/01/15 00:46:07;;;;;;;6.97;3.67;;;12.60;99.90;;;;;;4591497;19;20003;-33
2023/01/15 00:47:41;;;;;;;7.07;3.67;;;12.60;99.90;;;;;;4590168;19;20437;-33
2023/01/15 00:49:12;;;;;;;7.43;3.87;;;12.60;99.90;;;;;;4589842;19;20086;-31
2023/01/15 00:50:44;;;;;;;5.55;3.30;;;12.70;99.90;;;;;;4591644;19;20018;-36
2023/01/15 00:52:16;;;;;;;8.03;3.43;;;12.70;99.90;;;;;;4590063;19;20014;-33
2023/01/15 00:53:47;;;;;;;6.60;2.90;;;12.70;99.90;;;;;;4591264;19;20006;-30
2023/01/15 00:55:19;;;;;;;;;;;12.70;99.90;;;;;;4592190;19;20014;-29
2023/01/15 00:56:50;;;;;;;6.63;3.07;;;12.70;99.90;;;;;;4591302;19;19967;-29
2023/01/15 00:58:21;;;;;;;6.35;2.92;;;12.60;99.90;;;;;;4591374;19;20018;-29
2023/01/15 00:59:53;;;;;;;6.10;2.70;;;12.70;99.90;;;;;;4591475;19;20034;-33
2023/01/15 01:01:24;;;;;;;6.75;3.17;;;12.70;99.90;;;;;;4591044;19;20031;-32
2023/01/15 01:04:41;;;;;;;6.80;2.50;;;12.70;99.90;;;;;;4590456;19;20002;-29
2023/01/15 01:06:14;;;;;;;7.20;2.75;;;12.70;99.90;;;;;;4591682;19;20011;-33
2023/01/15 01:07:47;;;;;;;8.13;3.00;;;12.60;99.90;;;;;;4591086;19;20017;-30
2023/01/15 01:09:21;;;;;;;7.90;2.97;;;12.60;99.90;;;;;;4590144;19;20460;-29
2023/01/15 01:11:02;;;;;;;;;;;12.70;99.90;;;;;;4592608;19;20028;-31
2023/01/15 01:12:36;;;;;;;6.30;2.58;;;12.70;99.90;;;;;;4590720;19;19911;-31
2023/01/15 01:14:09;;;;;;;6.13;2.60;;;12.70;99.90;;;;;;4589794;19;20014;-29
2023/01/15 01:15:41;;;;;;;6.00;2.87;;;12.60;99.90;;;;;;4590703;19;20039;-31
2023/01/15 01:17:14;;;;;;;7.13;2.57;;;12.70;99.90;;;;;;4590980;19;20415;-28
2023/01/15 01:18:45;;;;;;;6.25;2.60;;;12.60;99.90;;;;;;4591143;19;20018;-29
2023/01/15 01:20:17;;;;;;;;;;;12.60;99.90;;;;;;4589887;19;20344;-30
2023/01/15 01:21:51;;;;;;;7.10;2.60;;;12.60;99.90;;;;;;4588992;19;19915;-29
2023/01/15 01:23:23;;;;;;;6.43;3.10;;;12.60;99.90;;;;;;4589473;19;20027;-30
2023/01/15 01:24:56;;;;;;;6.87;3.13;;;12.60;99.90;;;;;;4590240;19;20018;-35
2023/01/15 01:26:28;;;;;;;7.78;2.85;;;12.60;99.90;;;;;;4590208;19;20019;-31
2023/01/15 01:27:59;;;;;;;5.13;2.47;;;12.60;99.90;;;;;;4590833;19;20030;-30
2023/01/15 01:29:31;;;;;;;7.30;3.10;;;12.50;99.90;;;;;;4590894;19;20413;-29
2023/01/15 01:31:06;;;;;;;6.28;2.70;;;12.60;99.90;;;;;;4590862;19;20078;-31
2023/01/15 01:32:37;;;;;;;6.27;2.40;;;12.50;99.90;;;;;;4589341;19;20014;-32
2023/01/15 01:34:09;;;;;;;5.30;2.72;;;12.50;99.90;;;;;;4589788;19;20028;-34
2023/01/15 01:35:47;;;;;;;7.33;3.10;;;12.40;99.90;;;;;;4589552;19;20082;-31
2023/01/15 01:37:23;;;;;;;;;;;12.40;99.90;;;;;;4591703;19;20027;-32
2023/01/15 01:38:57;;;;;;;5.37;2.63;;;12.40;99.90;;;;;;4589239;19;19914;-32
2023/01/15 01:40:29;;;;;;;4.57;2.50;;;12.50;99.90;;;;;;4590062;19;20553;-29
2023/01/15 01:42:00;;;;;;;8.15;2.80;;;12.50;99.90;;;;;;4591374;19;20841;-28
2023/01/15 01:43:58;;;;;;;4.70;2.58;;;12.50;99.90;;;;;;4590633;19;20018;-30
2023/01/15 01:45:32;;;;;;;5.47;2.90;;;12.50;99.90;;;;;;4588925;19;20006;-29
2023/01/15 01:47:06;;;;;;;5.40;2.60;;;12.50;99.90;;;;;;4589974;19;20010;-32
2023/01/15 01:48:39;;;;;;;5.17;2.90;;;12.50;99.90;;;;;;4588732;19;20022;-29
2023/01/15 01:50:11;;;;;;;6.30;2.40;;;12.50;99.90;;;;;;4589257;19;20018;-29
2023/01/15 01:51:51;;;;;;;7.20;2.73;;;12.50;99.90;;;;;;4589055;19;20476;-29
2023/01/15 01:53:27;;;;;;;;;;;12.50;99.90;;;;;;4589658;19;20413;-29
2023/01/15 01:54:58;;;;;;;5.40;2.37;;;12.50;99.90;;;;;;4589425;19;19926;-29
2023/01/15 01:56:32;;;;;;;7.40;2.87;;;12.50;99.90;;;;;;4590139;19;20005;-31
2023/01/15 01:58:05;;;;;;;6.50;2.83;;;12.50;99.90;;;;;;4588921;19;20010;-32
2023/01/15 01:59:39;;;;;;;5.87;2.50;;;12.60;99.90;;;;;;4589265;19;20417;-31
2023/01/15 02:01:10;;;;;;;7.78;2.50;;;12.50;99.90;;;;;;4588820;19;20010;-31
2023/01/15 02:02:45;;;;;;;6.17;2.70;;;12.50;99.90;;;;;;4589463;19;20362;-29
2023/01/15 02:06:07;;;;;;;5.63;2.33;;;12.50;99.90;;;;;;4584311;19;20070;-30
2023/01/15 02:07:39;;;;;;;6.53;3.10;;;12.50;99.90;;;;;;4587478;19;20375;-32
2023/01/15 02:09:10;;;;;;;7.25;3.38;;;12.60;99.90;;;;;;4586800;19;20621;-30
2023/01/15 02:10:41;;;;;;;6.28;2.80;;;12.50;99.90;;;;;;4588992;19;20018;-29
2023/01/15 02:12:18;;;;;;;5.18;2.50;;;12.50;99.90;;;;;;4589539;19;20397;-30
2023/01/15 02:14:16;;;;;;;5.83;3.07;;;12.50;99.90;;;;;;4589052;19;20023;-28
2023/01/15 02:16:03;;;;;;;4.77;2.43;;;12.50;99.90;;;;;;4588254;19;21055;-29
2023/01/15 02:17:44;;;;;;;6.57;2.53;;;12.50;99.90;;;;;;4587373;19;20470;-29
2023/01/15 02:19:39;;;;;;;5.57;2.43;;;12.50;99.90;;;;;;4588482;19;19998;-29
2023/01/15 02:21:31;;;;;;;6.43;3.00;;;12.50;99.90;;;;;;4587620;19;20524;-30
2023/01/15 02:23:22;;;;;;;4.97;2.40;;;12.60;99.90;;;;;;4587559;19;20027;-28
2023/01/15 02:25:30;;;;;;;4.13;2.40;;;12.60;99.90;;;;;;4587181;19;20007;-30
2023/01/15 02:27:19;;;;;;;6.47;2.70;;;12.60;99.90;;;;;;4587417;19;20120;-31
2023/01/15 02:28:54;;;;;;;6.03;2.80;;;12.60;99.90;;;;;;4586428;19;20031;-32
2023/01/15 02:30:34;;;;;;;5.60;2.83;;;12.70;99.90;;;;;;4587847;19;20007;-32
2023/01/15 02:32:12;;;;;;;6.13;3.50;;;12.60;99.90;;;;;;4589084;19;20002;-31
2023/01/15 02:33:58;;;;;;;6.07;2.70;;;12.60;99.90;;;;;;4591678;19;20493;-32
2023/01/15 02:35:39;;;;;;;7.40;2.77;;;12.60;99.90;;;;;;4591965;19;20014;-31
2023/01/15 02:37:14;;;;;;;5.57;2.50;;;12.60;99.90;;;;;;4591939;19;20417;-32
2023/01/15 02:38:47;;;;;;;5.30;2.50;;;12.60;99.90;;;;;;4591988;19;20429;-30
2023/01/15 02:40:19;;;;;;;5.43;2.55;;;12.60;99.90;;;;;;4591896;19;20022;-30
2023/01/15 02:41:51;;;;;;;6.80;3.00;;;12.60;99.90;;;;;;4591792;19;20011;-33
2023/01/15 02:43:23;;;;;;;5.83;2.73;;;12.60;99.90;;;;;;4591099;19;20098;-28
2023/01/15 02:44:54;;;;;;;;;;;12.60;99.90;;;;;;4592193;19;20014;-31
2023/01/15 02:46:27;;;;;;;6.50;2.90;;;12.60;99.90;;;;;;4591787;19;20329;-30
2023/01/15 02:48:04;;;;;;;7.97;2.80;;;12.60;99.90;;;;;;4591570;19;20014;-31
2023/01/15 02:49:36;;;;;;;5.57;2.90;;;12.60;99.90;;;;;;4591717;19;20021;-29
2023/01/15 02:51:14;;;;;;;6.17;2.97;;;12.60;99.90;;;;;;4591472;19;20374;-30
2023/01/15 02:52:47;;;;;;;6.37;2.73;;;12.60;99.90;;;;;;4592377;19;20024;-31
2023/01/15 02:54:18;;;;;;;6.07;3.13;;;12.60;99.90;;;;;;4592334;19;20026;-35
2023/01/15 02:55:50;;;;;;;;;;;12.60;99.90;;;;;;4594507;19;20010;-33
2023/01/15 02:57:22;;;;;;;6.50;3.13;;;12.60;99.90;;;;;;4592791;19;19925;-30
2023/01/15 02:58:56;;;;;;;4.78;2.75;;;12.60;99.90;;;;;;4592973;19;20021;-35
2023/01/15 03:00:30;;;;;;;7.33;3.23;;;12.60;99.90;;;;;;4592554;19;20017;-33
2023/01/15 03:02:03;;;;;;;6.77;2.67;;;12.60;99.90;;;;;;4592002;19;20353;-29
2023/01/15 03:03:46;;;;;;;4.93;2.60;;;12.60;99.90;;;;;;4592726;19;20007;-29
2023/01/15 05:40:13;;;;;;;9.50;4.80;;;12.60;99.90;;;;;;4590482;19;20483;-29
2023/01/15 05:41:50;;;;;;;6.57;3.60;;;12.60;99.90;;;;;;4591205;19;20019;-32
2023/01/15 05:43:21;;;;;;;6.87;3.93;;;12.50;99.90;;;;;;4590273;19;20058;-31
2023/01/15 05:44:52;;;;;;;8.25;4.22;;;12.50;99.90;;;;;;4588522;19;20014;-31
2023/01/15 05:46:24;;;;;;;7.07;5.70;;;12.50;99.90;;;;;;4589136;19;20043;-30
2023/01/15 05:47:55;;;;;;;5.50;4.68;;;12.50;99.90;;;;;;4588960;19;20046;-33
2023/01/15 05:49:27;;;;;;;7.50;4.05;;;12.60;99.90;;;;;;4588604;19;20100;-32
2023/01/15 05:51:01;;;;;;;6.93;4.20;;;12.50;99.90;;;;;;4589277;19;20364;-32
2023/01/15 05:52:34;;;;;;;7.03;4.63;;;12.60;99.90;;;;;;4589291;19;20015;-31
2023/01/15 05:54:06;;;;;;;15.13;6.65;;;12.60;99.90;;;;;;4589903;19;20334;-29
2023/01/15 05:55:39;;;;;;;9.57;4.47;;;12.60;99.90;;;;;;4589551;19;20025;-30
2023/01/15 05:57:11;;;;;;;7.82;4.15;;;12.60;99.90;;;;;;4589172;19;20031;-31
2023/01/15 05:58:46;;;;;;;6.23;3.57;;;12.60;99.90;;;;;;4589272;19;20481;-31
2023/01/15 06:00:18;;;;;;;7.18;3.85;;;12.60;99.90;;;;;;4588925;19;20007;-31
2023/01/15 06:01:49;;;;;;;;;;;12.60;99.90;;;;;;4589203;19;20130;-32
2023/01/15 06:03:21;;;;;;;8.45;4.68;;;12.60;99.90;;;;;;4588438;19;19915;-32
2023/01/15 06:04:52;;;;;;;6.05;3.97;;;12.60;99.90;;;;;;4587675;19;20018;-30
2023/01/15 06:06:23;;;;;;;6.65;3.90;;;12.60;99.90;;;;;;4590227;19;20019;-30
2023/01/15 06:07:55;;;;;;;6.65;5.20;;;12.60;99.90;;;;;;4594770;19;20023;-30
2023/01/15 06:09:26;;;;;;;8.13;5.25;;;12.60;99.90;;;;;;4593418;19;20493;-32
2023/01/15 06:10:58;;;;;;;7.10;4.63;;;12.60;99.90;;;;;;4594172;19;20033;-30
2023/01/15 06:12:29;;;;;;;5.75;3.72;;;12.70;99.90;;;;;;4595563;19;20050;-32
2023/01/15 06:14:00;;;;;;;11.65;5.55;;;12.60;99.90;;;;;;4593220;19;20040;-31
2023/01/15 06:15:31;;;;;;;8.38;5.05;;;12.70;99.90;;;;;;4594549;19;20432;-29
2023/01/15 06:17:02;;;;;;;5.72;3.85;;;12.60;99.90;;;;;;4593161;19;20006;-33
2023/01/15 06:18:34;;;;;;;6.15;3.95;;;12.60;99.90;;;;;;4593645;19;20395;-31
2023/01/15 06:20:05;;;;;;;10.10;4.50;;;12.60;99.90;;;;;;4595256;19;20017;-34
2023/01/15 06:21:37;;;;;;;12.97;6.10;;;12.60;99.90;;;;;;4591563;19;20026;-31
2023/01/15 06:23:08;;;;;;;6.18;3.42;;;12.60;99.90;;;;;;4594732;19;20018;-31
2023/01/15 06:24:40;;;;;;;4.85;3.10;;;12.60;99.90;;;;;;4594267;19;20022;-29
2023/01/15 06:26:13;;;;;;;5.35;3.22;;;12.50;99.90;;;;;;4593647;19;20033;-30
2023/01/15 06:27:44;;;;;;;7.53;3.37;;;12.50;99.90;;;;;;4591971;19;20010;-30
2023/01/15 06:29:17;;;;;;;5.80;3.35;;;12.60;99.90;;;;;;4591421;19;20330;-32
2023/01/15 06:30:48;;;;;;;4.87;3.23;;;12.60;99.90;;;;;;4591290;19;20039;-29
2023/01/15 06:32:21;;;;;;;5.53;3.27;;;12.60;99.90;;;;;;4592316;19;20021;-32
2023/01/15 06:33:52;;;;;;;3.95;2.50;;;12.50;99.90;;;;;;4595440;19;20445;-30
2023/01/15 06:35:24;;;;;;;3.67;2.50;;;12.50;99.90;;;;;;4595173;19;20018;-33
2023/01/15 06:36:55;;;;;;;4.47;2.92;;;12.50;99.90;;;;;;4594466;19;20014;-30
2023/01/15 06:47:37;;;;;;;4.17;2.90;;;12.50;99.90;;;;;;4593391;19;20452;-31
2023/01/15 06:49:08;;;;;;;4.88;2.28;;;12.60;99.90;;;;;;4592860;19;20441;-33
2023/01/15 06:50:39;;;;;;;3.90;2.55;;;12.60;99.90;;;;;;4593969;19;20058;-28
2023/01/15 06:52:10;;;;;;;5.43;2.70;;;12.70;99.90;;;;;;4594134;19;20015;-30
2023/01/15 06:53:41;;;;;;;4.93;2.20;;;12.80;99.90;;;;;;4593711;19;20015;-27
2023/01/15 06:55:13;;;;;;;;;;;12.90;99.90;;;;;;4594896;19;20014;-27
2023/01/15 06:56:44;;;;;;;5.27;2.67;;;13.00;99.90;;;;;;4594227;19;19922;-31
2023/01/15 06:58:15;;;;;;;3.88;2.35;;;13.00;99.90;;;;;;4593727;19;20018;-29
2023/01/15 06:59:47;;;;;;;;;;;13.10;99.90;;;;;;4595132;19;20031;-29
2023/01/15 07:01:19;;;;;;;4.88;2.50;;;13.10;99.90;;;;;;4593854;19;19919;-30
2023/01/15 07:02:49;;;;;;;4.68;2.80;;;13.10;99.90;;;;;;4594173;19;20011;-28
2023/01/15 07:04:21;;;;;;;4.32;2.90;;;13.10;99.90;;;;;;4593433;19;20037;-31
2023/01/15 07:05:52;;;;;;;6.03;2.90;;;13.10;99.90;;;;;;4592144;19;20466;-33
2023/01/15 07:07:23;;;;;;;3.67;2.67;;;13.10;99.90;;;;;;4594194;19;20035;-31
2023/01/15 07:08:54;;;;;;;6.03;3.78;;;13.10;99.90;;;;;;4593035;19;20023;-32
2023/01/15 07:10:26;;;;;;;6.43;3.72;;;13.00;99.90;;;;;;4592622;19;20007;-29
2023/01/15 07:11:57;;;;;;;5.38;3.35;;;13.00;99.90;;;;;;4593770;19;20010;-30
2023/01/15 07:13:28;;;;;;;8.13;3.83;;;13.10;99.90;;;;;;4593583;19;20400;-32
2023/01/15 07:14:59;;;;;;;5.30;3.25;;;13.10;99.90;;;;;;4593011;19;20006;-29
2023/01/15 07:16:34;;;;;;;5.32;3.00;;;13.00;99.90;;;;;;4593107;19;20010;-35
2023/01/15 07:18:05;;;;;;;5.13;3.10;;;13.00;99.90;;;;;;4593260;19;20058;-29
2023/01/15 07:19:37;;;;;;;6.80;3.72;;;13.00;99.90;;;;;;4593699;19;20026;-29
2023/01/15 07:21:08;;;;;;;5.25;2.75;;;12.80;99.90;;;;;;4591539;19;20353;-35
2023/01/15 07:22:39;;;;;;;;;;;12.70;99.90;;;;;;4593537;19;20070;-30
2023/01/15 07:24:11;;;;;;;5.37;3.20;;;12.70;99.90;;;;;;4593375;19;19919;-32
2023/01/15 07:25:42;;;;;;;5.13;3.47;;;12.70;99.90;;;;;;4592070;19;20537;-32
2023/01/15 07:27:13;;;;;;;6.32;3.33;;;12.60;99.90;;;;;;4592507;19;20018;-31
2023/01/15 07:28:44;;;;;;;4.88;2.97;;;12.60;99.90;;;;;;4591278;19;20024;-30
2023/01/15 07:30:16;;;;;;;5.32;3.55;;;12.60;99.90;;;;;;4592595;19;20362;-27
2023/01/15 07:31:47;;;;;;;4.57;3.00;;;12.60;99.90;;;;;;4593276;19;20030;-30
2023/01/15 07:33:37;;;;;;;4.13;3.05;;;12.60;99.90;;;;;;4592670;19;20480;-29
2023/01/15 07:35:09;;;;;;;5.80;3.50;;;12.70;99.90;;;;;;4592758;19;20352;-32
2023/01/15 07:36:40;;;;;;;7.25;4.28;;;12.80;99.90;;;;;;4590571;19;20013;-30
2023/01/15 07:38:11;;;;;;;5.72;3.28;;;12.80;99.90;;;;;;4591516;19;20366;-30
2023/01/15 07:39:42;;;;;;;6.10;3.85;;;12.80;99.90;;;;;;4592397;19;20468;-29
2023/01/15 07:50:23;;;;;;;6.20;3.53;;;12.80;99.90;;;;;;4591839;19;20078;-33
2023/01/15 07:51:54;;;;;;;4.37;3.50;;;12.80;99.90;;;;;;4592447;19;20009;-28
2023/01/15 07:53:25;;;;;;;7.25;3.97;;;12.80;99.90;;;;;;4592924;19;20113;-29
2023/01/15 07:54:56;;;;;;;9.13;5.03;;;12.70;99.90;;;;;;4592767;19;20014;-29
2023/01/15 07:56:27;;;;;;;10.05;5.25;;;12.70;99.90;;;;;;4592475;19;20011;-29
2023/01/15 07:57:59;;;;;;;9.05;5.10;;;12.70;99.90;;;;;;4591540;19;20007;-29
2023/01/15 07:59:30;;;;;;;7.80;3.58;;;12.60;99.90;;;;;;4592388;19;20026;-30
2023/01/15 08:01:01;;;;;;;6.47;3.30;;;12.60;99.90;;;;;;4593034;19;20014;-29
2023/01/15 08:02:32;;;;;;;6.53;3.60;;;12.60;99.90;;;;;;4592343;19;20007;-29
2023/01/15 08:04:04;;;;;;;8.05;4.10;;;12.60;99.90;;;;;;4591136;19;20341;-30
2023/01/15 08:05:35;;;;;;;7.63;4.18;;;12.60;99.90;;;;;;4590908;19;20010;-30
2023/01/15 08:07:07;;;;;;;5.40;3.60;;;12.60;99.90;;;;;;4592340;19;20013;-31
2023/01/15 08:08:38;;;;;;;;;;;12.70;99.90;;;;;;4592795;19;20003;-30
2023/01/15 08:16:16;;;;;;;4.83;3.37;;;13.10;99.90;;;;;;4590966;19;20014;-35
2023/01/15 08:17:49;;;;;;;6.88;3.70;;;13.10;99.90;;;;;;4592406;19;20089;-29
2023/01/15 08:19:20;;;;;;;7.80;5.33;;;13.00;99.90;;;;;;4592143;19;20066;-35
2023/01/15 08:20:51;;;;;;;8.02;4.88;;;13.00;99.90;;;;;;4591932;19;20014;-31
2023/01/15 08:22:22;;;;;;;7.63;4.70;;;13.00;99.90;;;;;;4592125;19;20082;-33
2023/01/15 08:23:53;;;;;;;5.80;4.00;;;13.00;99.90;;;;;;4591013;19;20026;-31
2023/01/15 08:25:25;;;;;;;5.20;3.47;;;13.00;99.90;;;;;;4592640;19;20020;-29
2023/01/15 08:26:56;;;;;;;6.03;4.10;;;12.90;99.90;;;;;;4594230;19;20027;-34
2023/01/15 08:28:27;;;;;;;7.05;4.53;;;12.90;99.90;;;;;;4592193;19;20011;-30
2023/01/15 08:29:58;;;;;;;7.13;4.35;;;12.80;99.90;;;;;;4592570;19;20078;-30
2023/01/15 08:31:29;;;;;;;7.63;5.25;;;12.80;99.90;;;;;;4589209;19;20019;-34
2023/01/15 08:33:02;;;;;;;6.32;4.53;;;12.70;99.90;;;;;;4591229;19;20070;-29
2023/01/15 08:34:33;;;;;;;8.07;5.37;;;12.70;99.90;;;;;;4591773;19;20011;-31
2023/01/15 08:36:04;;;;;;;8.38;6.25;;;12.80;99.90;;;;;;4592670;19;20476;-28
2023/01/15 08:37:35;;;;;;;8.45;4.60;;;12.80;99.90;;;;;;4593207;19;20035;-38
2023/01/15 08:39:06;;;;;;;8.35;6.53;;;12.80;99.90;;;;;;4593097;19;20019;-36
2023/01/15 08:40:57;;;;;;;9.02;6.65;;;12.80;99.90;;;;;;4594095;19;20048;-30
2023/01/15 08:42:28;;;;;;;7.03;5.53;;;12.90;99.90;;;;;;4590182;19;20011;-34
2023/01/15 08:44:00;;;;;;;5.85;4.18;;;12.80;99.90;;;;;;4591063;19;20010;-35
2023/01/15 08:45:31;;;;;;;5.67;4.20;;;12.90;99.90;;;;;;4592101;19;20356;-34
2023/01/15 08:47:38;;;;;;;8.67;5.67;;;12.90;99.90;;;;;;4612135;19;20796;-37
2023/01/15 08:49:10;;;;;;;7.78;4.88;;;12.80;99.90;;;;;;4614156;19;20090;-29
2023/01/15 08:50:41;;;;;;;8.88;6.40;;;12.80;99.90;;;;;;4613545;19;20500;-35
2023/01/15 08:52:13;;;;;;;6.25;4.30;;;12.80;99.90;;;;;;4613311;19;20014;-30
2023/01/15 08:53:44;;;;;;;5.50;3.97;;;12.80;99.90;;;;;;4614321;19;20369;-29
2023/01/15 08:55:16;;;;;;;5.15;3.63;;;12.80;99.90;;;;;;4612799;19;20060;-32
2023/01/15 08:56:47;;;;;;;7.30;3.92;;;12.80;99.90;;;;;;4612891;19;20046;-30
2023/01/15 08:58:18;;;;;;;5.57;3.83;;;12.80;99.90;;;;;;4613996;19;20014;-30
2023/01/15 08:59:49;;;;;;;5.75;4.03;;;12.80;99.90;;;;;;4611161;19;20032;-31
2023/01/15 09:01:21;;;;;;;6.65;4.07;;;12.80;99.90;;;;;;4612886;19;20037;-31
2023/01/15 09:02:52;;;;;;;6.18;4.32;;;12.80;99.90;;;;;;4613338;19;20081;-31
2023/01/15 09:04:23;;;;;;;7.20;3.95;;;12.90;99.90;;;;;;4611150;19;20381;-34
2023/01/15 09:05:58;;;;;;;7.50;5.30;;;12.80;99.90;;;;;;4611188;19;20006;-34
2023/01/15 09:07:29;;;;;;;7.20;4.83;;;12.80;99.90;;;;;;4610943;19;20025;-33
2023/01/15 09:09:01;;;;;;;6.57;4.13;;;12.80;99.90;;;;;;4612570;19;20010;-31
2023/01/15 09:10:32;;;;;;;7.35;4.78;;;12.80;99.90;;;;;;4614536;19;20044;-29
2023/01/15 09:12:04;;;;;;;6.83;4.60;;;12.80;99.90;;;;;;4611306;19;20017;-27
2023/01/15 09:13:36;;;;;;;6.35;4.20;;;12.80;99.90;;;;;;4612354;19;20583;-33
2023/01/15 09:15:07;;;;;;;;;;;12.80;99.90;;;;;;4612511;19;20006;-29
2023/01/15 09:16:39;;;;;;;7.47;4.65;;;12.80;99.90;;;;;;4610993;19;19911;-32
2023/01/15 09:18:11;;;;;;;7.90;5.82;;;12.80;99.90;;;;;;4611385;19;20018;-34
2023/01/15 09:19:42;;;;;;;6.83;4.63;;;12.80;99.90;;;;;;4611906;19;20018;-36
2023/01/15 09:21:14;;;;;;;7.95;5.13;;;12.80;99.90;;;;;;4611434;19;20500;-29
2023/01/15 09:22:45;;;;;;;7.88;5.78;;;12.80;99.90;;;;;;4612104;19;20014;-31
2023/01/15 09:24:16;;;;;;;7.65;4.68;;;12.80;99.90;;;;;;4611264;19;20393;-30
2023/01/15 09:25:54;;;;;;;6.70;4.55;;;12.80;99.90;;;;;;4611295;19;20010;-31
2023/01/15 09:27:26;;;;;;;6.17;4.37;;;12.80;99.90;;;;;;4608486;19;20092;-37
2023/01/15 09:28:58;;;;;;;6.47;4.20;;;12.80;99.90;;;;;;4609880;19;20014;-32
2023/01/15 09:30:30;;;;;;;5.40;3.67;;;12.80;99.90;;;;;;4611256;19;20024;-34
2023/01/15 09:32:01;;;;;;;6.47;4.50;;;12.70;99.90;;;;;;4610910;19;20022;-29
2023/01/15 09:33:32;;;;;;;7.43;3.85;;;12.70;99.90;;;;;;4612548;19;20091;-32
2023/01/15 09:35:04;;;;;;;7.43;4.45;;;12.70;99.90;;;;;;4610045;19;20073;-29
2023/01/15 09:36:35;;;;;;;5.90;3.50;;;12.80;99.90;;;;;;4611870;19;20515;-29
2023/01/15 09:38:06;;;;;;;5.68;3.53;;;12.70;99.90;;;;;;4611475;19;20010;-30
2023/01/15 09:39:38;;;;;;;5.85;3.90;;;12.70;99.90;;;;;;4610279;19;20018;-34
2023/01/15 09:42:04;;;;;;;5.03;3.30;;;12.70;99.90;;;;;;4612259;19;20014;-33
2023/01/15 09:43:28;;;;;;;10.50;5.33;;;12.70;99.90;;;;;;4609772;19;20031;-31
2023/01/15 09:45:08;;;;;;;7.50;4.13;;;12.70;99.90;;;;;;4608585;19;20010;-29
2023/01/15 09:46:43;;;;;;;7.60;3.97;;;12.70;99.90;;;;;;4608766;19;20043;-30
2023/01/15 09:48:23;;;;;;;6.57;3.97;;;12.60;99.90;;;;;;4609127;19;20045;-35
2023/01/15 09:50:17;;;;;;;7.30;4.20;;;12.70;99.90;;;;;;4608493;19;20089;-31
2023/01/15 09:52:08;;;;;;;4.73;3.13;;;12.60;99.90;;;;;;4609673;19;20124;-30
2023/01/15 09:54:06;;;;;;;5.87;3.33;;;12.60;99.90;;;;;;4609015;19;20022;-28
2023/01/15 09:55:44;;;;;;;6.20;3.10;;;12.60;99.90;;;;;;4609265;19;20456;-30
2023/01/15 09:57:15;;;;;;;6.43;3.43;;;12.60;99.90;;;;;;4609345;19;20007;-34
2023/01/15 09:58:46;;;;;;;6.80;3.70;;;12.60;99.90;;;;;;4593032;19;20391;-34
2023/01/15 10:00:20;;;;;;;5.63;3.90;;;12.60;99.90;;;;;;4591358;19;20138;-29
2023/01/15 10:01:51;;;;;;;5.57;3.30;;;12.60;99.90;;;;;;4591061;19;20086;-32
2023/01/15 10:03:36;;;;;;;7.38;3.90;;;12.60;99.90;;;;;;4590026;19;20440;-35
2023/01/15 10:05:14;;;;;;;12.40;5.67;;;12.60;99.90;;;;;;4591538;19;20357;-36
2023/01/15 10:06:53;;;;;;;12.90;5.87;;;12.60;99.90;;;;;;4590063;19;21205;-27
2023/01/15 10:08:32;;;;;;;8.27;4.23;;;12.50;99.90;;;;;;4591501;19;20404;-29
2023/01/15 10:10:09;;;;;;;7.40;4.67;;;12.60;99.90;;;;;;4590962;19;21041;-36
2023/01/15 10:13:40;;;;;;;5.53;3.47;;;12.60;99.90;;;;;;4591051;19;20489;-29
2023/01/15 10:15:40;;;;;;;6.07;3.90;;;12.70;99.90;;;;;;4589031;19;20105;-35
2023/01/15 10:17:28;;;;;;;7.00;4.40;;;12.70;99.90;;;;;;4590554;19;20046;-32
2023/01/15 10:19:01;;;;;;;7.23;4.70;;;12.80;99.90;;;;;;4590432;19;20019;-31
2023/01/15 10:20:51;;;;;;;6.13;3.80;;;12.80;99.90;;;;;;4590988;19;20010;-30
2023/01/15 10:22:54;;;;;;;7.23;4.30;;;12.80;99.90;;;;;;4591430;19;20491;-32
2023/01/15 10:24:37;;;;;;;5.97;3.90;;;12.70;99.90;;;;;;4591914;19;21025;-29
2023/01/15 10:26:21;;;;;;;6.00;3.53;;;12.80;99.90;;;;;;4592011;19;20026;-30
2023/01/15 10:28:31;;;;;;;5.17;3.53;;;12.80;99.90;;;;;;4592633;19;20606;-30
2023/01/15 10:30:13;;;;;;;5.77;3.70;;;12.80;99.90;;;;;;4591865;19;20039;-27
2023/01/15 10:32:03;;;;;;;7.67;4.97;;;12.70;99.90;;;;;;4592116;19;20037;-28
2023/01/15 10:33:45;;;;;;;5.83;3.40;;;12.70;99.90;;;;;;4593030;19;20488;-31
2023/01/15 10:36:00;;;;;;;5.80;3.73;;;12.80;99.90;;;;;;4590624;19;20559;-31
2023/01/15 10:37:40;;;;;;;5.73;3.33;;;12.80;99.90;;;;;;4588753;19;20073;-30
2023/01/15 10:39:45;;;;;;;6.07;3.80;;;12.80;99.90;;;;;;4590092;19;20049;-29
2023/01/15 10:41:16;;;;;;;7.37;4.33;;;12.90;99.90;;;;;;4590213;19;20010;-33
2023/01/15 10:42:57;;;;;;;5.63;3.63;;;13.00;99.90;;;;;;4589208;19;21096;-31
2023/01/15 10:44:53;;;;;;;6.67;4.33;;;13.00;99.90;;;;;;4590200;19;20022;-34
2023/01/15 10:46:27;;;;;;;9.40;5.43;;;13.00;99.90;;;;;;4589401;19;20019;-30
2023/01/15 10:48:28;;;;;;;4.97;3.57;;;12.90;99.90;;;;;;4588477;19;20101;-30
2023/01/15 10:50:01;;;;;;;5.87;4.27;;;12.80;99.90;;;;;;4586906;19;20006;-30
2023/01/15 10:51:43;;;;;;;8.00;5.33;;;12.80;99.90;;;;;;4589122;19;20031;-33
2023/01/15 10:53:27;;;;;;;8.85;5.88;;;12.80;99.90;;;;;;4586544;19;20019;-31
2023/01/15 10:55:30;;;;;;;6.83;4.83;;;12.80;99.90;;;;;;4589085;19;20026;-37
2023/01/15 10:57:50;;;;;;;6.57;4.50;;;12.90;99.90;;;;;;4588992;19;20055;-33
2023/01/15 10:59:51;;;;;;;6.00;4.00;;;12.80;99.90;;;;;;4610013;19;20762;-33
2023/01/15 11:01:23;;;;;;;5.93;4.00;;;12.80;99.90;;;;;;4608500;19;20040;-34
2023/01/15 11:03:03;;;;;;;6.30;3.80;;;12.80;99.90;;;;;;4611420;19;20110;-31
2023/01/15 11:04:36;;;;;;;6.53;4.20;;;12.80;99.90;;;;;;4611163;19;20026;-31
2023/01/15 11:06:15;;;;;;;6.40;3.80;;;12.80;99.90;;;;;;4607967;19;21096;-32
2023/01/15 11:07:49;;;;;;;5.83;3.60;;;12.80;99.90;;;;;;4610015;19;20082;-31
2023/01/15 11:09:22;;;;;;;5.93;4.13;;;12.80;99.90;;;;;;4608544;19;20014;-33
2023/01/15 11:10:53;;;;;;;5.43;3.60;;;12.80;99.90;;;;;;4609836;19;20489;-31
2023/01/15 11:19:44;;;;;;;6.50;4.18;;;12.80;99.90;;;;;;4609595;19;21047;-31
2023/01/15 11:21:17;;;;;;;6.95;4.55;;;12.80;99.90;;;;;;4609453;19;20048;-33
2023/01/15 11:22:48;;;;;;;6.43;4.97;;;12.80;99.90;;;;;;4608559;19;20056;-32
2023/01/15 11:24:20;;;;;;;6.10;4.63;;;12.80;99.90;;;;;;4608881;19;20018;-35
2023/01/15 11:25:57;;;;;;;6.83;4.70;;;12.80;99.90;;;;;;4609702;19;20105;-37
2023/01/15 11:27:34;;;;;;;5.80;4.33;;;12.80;99.90;;;;;;4609588;19;20382;-37
2023/01/15 11:29:36;;;;;;;6.40;4.70;;;12.80;99.90;;;;;;4608513;19;20093;-32
2023/01/15 11:31:20;;;;;;;6.37;4.07;;;12.80;99.90;;;;;;4609372;19;20014;-31
2023/01/15 11:32:55;;;;;;;6.27;4.20;;;12.80;99.90;;;;;;4608635;19;20443;-33
2023/01/15 11:34:27;;;;;;;7.67;4.80;;;12.80;99.90;;;;;;4608889;19;20010;-37
2023/01/15 11:36:21;;;;;;;7.07;4.50;;;12.70;99.90;;;;;;4608227;19;20033;-31